KMLT

Millinocket Municipal Airport

Millinocket, Maine, USA
METAR KMLT 191653Z AUTO 03006KT 10SM SCT043 23/12 A3011 RMK AO2 SLP202 T02330117 TSNO
Observed Flight Rules
Aug-19 @ 16:53 UTC (18 minutes ago) Visual Flight Rules
Wind Visibility Clouds
30° at 6 knots 10 miles
  • Scattered at 4,300' AGL
Temperatures Readings
Current 23°C / 73°F
Dewpoint 12°C / 54°F
Humidity 50%
Altimeter 30.11" Hg
Pressure 1020.2 hPa
Elevation 123
METAR KMLT 191653Z AUTO 03006KT 10SM SCT043 23/12 A3011 RMK AO2 SLP202 T02330117 TSNO
Observed Flight Rules
Aug-19 @ 16:53 UTC
(18 minutes ago)
VFR
Wind Visibility
30° at 6 knots 10 miles
Clouds
  • Scattered at 4,300' AGL
Temperature Dewpoint
23°C / 73°F 12°C / 54°F
Humidity Altimeter Pressure
50% 30.11" Hg 1020.2 hPa